Air Navigation Services of Czech Republic
Airport: LKPR Updated:  28.10.2020 04:30:26  UTC
 METAR LKPR 28.10. 04:30 ...
METAR LKPR 280430Z 15009KT CAVOK 04/02 Q1013 NOSIG RMK REG QNH 1009=
 TAF LKPR 27.10. 23:00 ...
TAF LKPR 272300Z 2800/2906 19008KT CAVOK      BECMG 2800/2802 6000 NSC      TEMPO 2802/2807 4000 BR SCT005      PROB30 TEMPO 2802/2806 1700 BR BKN005      BECMG 2807/2809 9999 SCT033      TEMPO 2809/2817 -RA BKN026      PROB30 TEMPO 2809/2816 BKN012      TEMPO 2810/2819 24014G24KT      TEMPO 2900/2906 23014G26KT -RA BKN030=